Osseo, Wisconsin
Current Conditions -  °F | °C
As of 3:21 AM on Saturday 29 Nov 2014 (Local Time) from KEAU Reporting Station
Haze Haze  
Wind Chill: 13°   Ceiling: 800
Heat Index: 22°   Visibility: 6mi
Dew Point: 19°   Wind: 7mph
Humidity: 89%   Direction: 90°E
Pressure: 29.63"   Gusts: NA
Location:  44.57°N, 91.23°W
Report Text: KEAU 290921Z AUTO 09006KT 6SM BR OVC008 M06/M07 A2963 RMK AO2 CIG 006V011 T10561072
Loading
Personal Weather Stations






























Interactive Weather Map New forecast layout! Learn more

10-Day Weather Forecast

Advertisements
Track Severe Weather on mobile